Reedy Creek, North Carolina
Current Conditions -  °F | °C
As of 1:35 AM on Wednesday 26 Nov 2014 (Local Time) from KEXX Reporting Station
Light Rain Light Rain  
Wind Chill: 45°   Ceiling: 7000
Heat Index: 45°   Visibility: 10mi
Dew Point: 42°   Wind: 3mph
Humidity: 90%   Direction: 20°NNE
Pressure: 29.98"   Gusts: NA
Location:  35.7974°N, 80.2541°W
Report Text: KEXX 260635Z AUTO 02003KT 10SM -RA SCT024 SCT044 BKN070 07/06 A2998 RMK AO2 P0003 T00740058
Loading
Personal Weather Stations






























Interactive Weather Map New forecast layout! Learn more

10-Day Weather Forecast

Advertisements
Track Severe Weather on mobile